Osceola, IA

9:12 AM CST on December 22, 2014 (GMT -0600)
Chariton Municipal | Change Station
CLOSE
Current Station
Airport
Location: Chariton,
Elevation: 1050 ft
Nearby Weather Stations

Elev 1050 ft 41.02 °N, 93.36 °W | Updated 17 minutes ago

Rain
Rain
39 °F
Feels Like 33 °F
N
9
Wind Variable Wind from SE
Gusts 17 mph

Today
High -- | Low -- °F
--% Chance of Precip.
Yesterday
High -- | Low -- °F
Precip. -- in
7:37 AM 4:50 PM
New Moon, 0% visible
Pressure 29.62 in
Visibility 2.5 miles
Clouds Scattered Clouds 1600 ft
Scattered Clouds 2400 ft
Mostly Cloudy 2800 ft
Windchill 33 °F
Dew Point 37 °F
Humidity 93%
Rainfall 0.02 in
Snow Depth Not available.
UV 0 out of 12
Pollen .10 out of 12
Air Quality Not available.
Flu Activity Not available.
METAR KCNC 221455Z AUTO 14008G15KT 2 1/2SM -UP SCT016 SCT024 BKN028 04/03 A2962 RMK AO2 P0002

More Conditions Fewer Conditions

Pressure 29.62 in
Visibility 2.5 miles
Clouds Scattered Clouds 1600 ft
Scattered Clouds 2400 ft
Mostly Cloudy 2800 ft
Windchill 33 °F
Dew Point 37 °F
Humidity 93%
Rainfall 0.02 in
Snow Depth Not available.
UV 0 out of 12
Pollen .10 out of 12
Air Quality Not available.
Flu Activity Not available.
METAR KCNC 221455Z AUTO 14008G15KT 2 1/2SM -UP SCT016 SCT024 BKN028 04/03 A2962 RMK AO2 P0002

More Conditions Fewer Conditions

10-Day Weather Forecast

Almanac

Astronomy

Dec. 22, 2014 Rise Set
Actual Time
Civil Twilight
Nautical Twilight
Astronomical Twilight
Moon
Length of Visible Light
Length of Day
Tomorrow will be .
, % of the Moon is Illuminated

Today's Extremes

State Highs State Lows

Community

WunderPhotos

Upload Photos

1,779,610 photos uploaded!

WunderBlogs® & News

Nearby

Air Quality

  Air Quality AQ Index Pollutant
Not available.

Snow Depth

Station Depth Elevation

Earthquake Activity

City Distance Mag. Time & Date
Minimum magnitude displayed is 2.5.

Coastal Water Temperatures

Place Temperature

Nearby Weather Stations